sensor_id;sensor_type;location;lat;lon;timestamp;temperature;humidity
71155;DHT22;59375;53.216;5.728;2023-04-25T00:01:03;6.90;99.90
71155;DHT22;59375;53.216;5.728;2023-04-25T00:03:30;7.00;99.90
71155;DHT22;59375;53.216;5.728;2023-04-25T00:05:56;6.90;99.90
71155;DHT22;59375;53.216;5.728;2023-04-25T00:08:22;6.90;99.90
71155;DHT22;59375;53.216;5.728;2023-04-25T00:10:47;6.90;99.90
71155;DHT22;59375;53.216;5.728;2023-04-25T00:13:14;6.90;99.90
71155;DHT22;59375;53.216;5.728;2023-04-25T00:15:40;6.90;99.90
71155;DHT22;59375;53.216;5.728;2023-04-25T00:18:07;6.90;99.90
71155;DHT22;59375;53.216;5.728;2023-04-25T00:20:32;6.90;99.90
71155;DHT22;59375;53.216;5.728;2023-04-25T00:22:58;6.80;99.90
71155;DHT22;59375;53.216;5.728;2023-04-25T00:25:23;6.80;99.90
71155;DHT22;59375;53.216;5.728;2023-04-25T00:27:49;6.80;99.90
71155;DHT22;59375;53.216;5.728;2023-04-25T00:30:14;6.70;99.90
71155;DHT22;59375;53.216;5.728;2023-04-25T00:32:40;6.70;99.90
71155;DHT22;59375;53.216;5.728;2023-04-25T00:35:05;6.70;99.90
71155;DHT22;59375;53.216;5.728;2023-04-25T00:37:31;6.70;99.90
71155;DHT22;59375;53.216;5.728;2023-04-25T00:39:57;6.70;99.90
71155;DHT22;59375;53.216;5.728;2023-04-25T00:42:23;6.70;99.90
71155;DHT22;59375;53.216;5.728;2023-04-25T00:44:49;6.70;99.90
71155;DHT22;59375;53.216;5.728;2023-04-25T00:47:15;6.70;99.90
71155;DHT22;59375;53.216;5.728;2023-04-25T00:49:40;6.70;99.90
71155;DHT22;59375;53.216;5.728;2023-04-25T00:52:05;6.80;99.90
71155;DHT22;59375;53.216;5.728;2023-04-25T00:54:31;6.70;99.90
71155;DHT22;59375;53.216;5.728;2023-04-25T00:56:57;6.70;99.90
71155;DHT22;59375;53.216;5.728;2023-04-25T00:59:22;6.80;99.90
71155;DHT22;59375;53.216;5.728;2023-04-25T01:01:48;6.80;99.90
71155;DHT22;59375;53.216;5.728;2023-04-25T01:04:14;6.80;99.90
71155;DHT22;59375;53.216;5.728;2023-04-25T01:06:40;6.80;99.90
71155;DHT22;59375;53.216;5.728;2023-04-25T01:09:05;6.70;99.90
71155;DHT22;59375;53.216;5.728;2023-04-25T01:11:31;6.70;99.90
71155;DHT22;59375;53.216;5.728;2023-04-25T01:13:56;6.60;99.90
71155;DHT22;59375;53.216;5.728;2023-04-25T01:16:22;6.60;99.90
71155;DHT22;59375;53.216;5.728;2023-04-25T01:18:49;6.50;99.90
71155;DHT22;59375;53.216;5.728;2023-04-25T01:21:15;6.40;99.90
71155;DHT22;59375;53.216;5.728;2023-04-25T01:23:41;6.40;99.90
71155;DHT22;59375;53.216;5.728;2023-04-25T01:26:08;6.40;99.90
71155;DHT22;59375;53.216;5.728;2023-04-25T01:28:34;6.40;99.90
71155;DHT22;59375;53.216;5.728;2023-04-25T01:31:00;6.40;99.90
71155;DHT22;59375;53.216;5.728;2023-04-25T01:33:25;6.30;99.90
71155;DHT22;59375;53.216;5.728;2023-04-25T01:35:51;6.20;99.90
71155;DHT22;59375;53.216;5.728;2023-04-25T01:38:17;6.10;99.90
71155;DHT22;59375;53.216;5.728;2023-04-25T01:40:42;6.10;99.90
71155;DHT22;59375;53.216;5.728;2023-04-25T01:43:09;6.10;99.90
71155;DHT22;59375;53.216;5.728;2023-04-25T01:45:37;6.10;99.90
71155;DHT22;59375;53.216;5.728;2023-04-25T01:48:07;6.20;99.90
71155;DHT22;59375;53.216;5.728;2023-04-25T01:50:32;6.20;99.90
71155;DHT22;59375;53.216;5.728;2023-04-25T01:52:58;6.10;99.90
71155;DHT22;59375;53.216;5.728;2023-04-25T01:55:23;6.10;99.90
71155;DHT22;59375;53.216;5.728;2023-04-25T01:57:49;6.10;99.90
71155;DHT22;59375;53.216;5.728;2023-04-25T02:00:14;6.10;99.90
71155;DHT22;59375;53.216;5.728;2023-04-25T02:02:40;6.10;99.90
71155;DHT22;59375;53.216;5.728;2023-04-25T02:05:06;6.10;99.90
71155;DHT22;59375;53.216;5.728;2023-04-25T02:07:31;6.10;99.90
71155;DHT22;59375;53.216;5.728;2023-04-25T02:09:57;6.10;99.90
71155;DHT22;59375;53.216;5.728;2023-04-25T02:12:22;6.10;99.90
71155;DHT22;59375;53.216;5.728;2023-04-25T02:14:48;6.10;99.90
71155;DHT22;59375;53.216;5.728;2023-04-25T02:17:13;6.10;99.90
71155;DHT22;59375;53.216;5.728;2023-04-25T02:19:39;6.10;99.90
71155;DHT22;59375;53.216;5.728;2023-04-25T02:22:04;6.00;99.90
71155;DHT22;59375;53.216;5.728;2023-04-25T02:24:30;6.00;99.90
71155;DHT22;59375;53.216;5.728;2023-04-25T02:26:57;6.00;99.90
71155;DHT22;59375;53.216;5.728;2023-04-25T02:29:22;6.00;99.90
71155;DHT22;59375;53.216;5.728;2023-04-25T02:31:48;6.00;99.90
71155;DHT22;59375;53.216;5.728;2023-04-25T02:34:13;5.90;99.90
71155;DHT22;59375;53.216;5.728;2023-04-25T02:36:39;5.90;99.90
71155;DHT22;59375;53.216;5.728;2023-04-25T02:39:04;5.90;99.90
71155;DHT22;59375;53.216;5.728;2023-04-25T02:41:30;5.90;99.90
71155;DHT22;59375;53.216;5.728;2023-04-25T02:43:55;5.90;99.90
71155;DHT22;59375;53.216;5.728;2023-04-25T02:46:21;5.90;99.90
71155;DHT22;59375;53.216;5.728;2023-04-25T02:48:46;5.90;99.90
71155;DHT22;59375;53.216;5.728;2023-04-25T02:51:12;5.90;99.90
71155;DHT22;59375;53.216;5.728;2023-04-25T02:53:37;5.90;99.90
71155;DHT22;59375;53.216;5.728;2023-04-25T02:56:03;6.00;99.90
71155;DHT22;59375;53.216;5.728;2023-04-25T02:58:29;6.00;99.90
71155;DHT22;59375;53.216;5.728;2023-04-25T03:00:54;6.10;99.90
71155;DHT22;59375;53.216;5.728;2023-04-25T03:03:20;6.10;99.90
71155;DHT22;59375;53.216;5.728;2023-04-25T03:05:49;6.20;99.90
71155;DHT22;59375;53.216;5.728;2023-04-25T03:08:16;6.20;99.90
71155;DHT22;59375;53.216;5.728;2023-04-25T03:10:41;6.30;99.90
71155;DHT22;59375;53.216;5.728;2023-04-25T03:13:07;6.30;99.90
71155;DHT22;59375;53.216;5.728;2023-04-25T03:15:32;6.30;99.90
71155;DHT22;59375;53.216;5.728;2023-04-25T03:17:58;6.30;99.90
71155;DHT22;59375;53.216;5.728;2023-04-25T03:20:23;6.20;99.90
71155;DHT22;59375;53.216;5.728;2023-04-25T03:22:49;6.10;99.90
71155;DHT22;59375;53.216;5.728;2023-04-25T03:25:14;6.10;99.90
71155;DHT22;59375;53.216;5.728;2023-04-25T03:27:40;6.00;99.90
71155;DHT22;59375;53.216;5.728;2023-04-25T03:30:05;5.90;99.90
71155;DHT22;59375;53.216;5.728;2023-04-25T03:32:31;5.90;99.90
71155;DHT22;59375;53.216;5.728;2023-04-25T03:34:57;5.90;99.90
71155;DHT22;59375;53.216;5.728;2023-04-25T03:37:22;5.90;99.90
71155;DHT22;59375;53.216;5.728;2023-04-25T03:39:48;5.90;99.90
71155;DHT22;59375;53.216;5.728;2023-04-25T03:42:13;5.90;99.90
71155;DHT22;59375;53.216;5.728;2023-04-25T03:44:39;5.90;99.90
71155;DHT22;59375;53.216;5.728;2023-04-25T03:47:05;6.00;99.90
71155;DHT22;59375;53.216;5.728;2023-04-25T03:49:32;5.90;99.90
71155;DHT22;59375;53.216;5.728;2023-04-25T03:51:57;5.90;99.90
71155;DHT22;59375;53.216;5.728;2023-04-25T03:54:23;5.90;99.90
71155;DHT22;59375;53.216;5.728;2023-04-25T03:56:48;5.80;99.90
71155;DHT22;59375;53.216;5.728;2023-04-25T03:59:14;5.80;99.90
71155;DHT22;59375;53.216;5.728;2023-04-25T04:01:39;5.70;99.90
71155;DHT22;59375;53.216;5.728;2023-04-25T04:04:05;5.70;99.90
71155;DHT22;59375;53.216;5.728;2023-04-25T04:06:30;5.70;99.90
71155;DHT22;59375;53.216;5.728;2023-04-25T04:08:56;5.60;99.90
71155;DHT22;59375;53.216;5.728;2023-04-25T04:11:21;5.70;99.90
71155;DHT22;59375;53.216;5.728;2023-04-25T04:13:47;5.80;99.90
71155;DHT22;59375;53.216;5.728;2023-04-25T04:16:12;5.80;99.90
71155;DHT22;59375;53.216;5.728;2023-04-25T04:18:38;5.90;99.90
71155;DHT22;59375;53.216;5.728;2023-04-25T04:21:03;5.90;99.90
71155;DHT22;59375;53.216;5.728;2023-04-25T04:23:29;5.90;99.90
71155;DHT22;59375;53.216;5.728;2023-04-25T04:25:55;5.90;99.90
71155;DHT22;59375;53.216;5.728;2023-04-25T04:28:21;5.90;99.90
71155;DHT22;59375;53.216;5.728;2023-04-25T04:30:47;5.90;99.90
71155;DHT22;59375;53.216;5.728;2023-04-25T04:33:12;5.90;99.90
71155;DHT22;59375;53.216;5.728;2023-04-25T04:35:38;5.90;99.90
71155;DHT22;59375;53.216;5.728;2023-04-25T04:38:04;5.90;99.90
71155;DHT22;59375;53.216;5.728;2023-04-25T04:40:29;5.90;99.90
71155;DHT22;59375;53.216;5.728;2023-04-25T04:42:57;5.80;99.90
71155;DHT22;59375;53.216;5.728;2023-04-25T04:45:23;5.90;99.90
71155;DHT22;59375;53.216;5.728;2023-04-25T04:47:49;5.90;99.90
71155;DHT22;59375;53.216;5.728;2023-04-25T04:50:14;5.90;99.90
71155;DHT22;59375;53.216;5.728;2023-04-25T04:52:41;5.90;99.90
71155;DHT22;59375;53.216;5.728;2023-04-25T04:55:06;5.90;99.90
71155;DHT22;59375;53.216;5.728;2023-04-25T04:57:33;5.90;99.90
71155;DHT22;59375;53.216;5.728;2023-04-25T04:59:59;6.00;99.90
71155;DHT22;59375;53.216;5.728;2023-04-25T05:02:25;5.90;99.90
71155;DHT22;59375;53.216;5.728;2023-04-25T05:04:51;6.00;99.90
71155;DHT22;59375;53.216;5.728;2023-04-25T05:07:17;6.00;99.90
71155;DHT22;59375;53.216;5.728;2023-04-25T05:09:43;5.90;99.90
71155;DHT22;59375;53.216;5.728;2023-04-25T05:12:08;6.00;99.90
71155;DHT22;59375;53.216;5.728;2023-04-25T05:14:34;6.00;99.90
71155;DHT22;59375;53.216;5.728;2023-04-25T05:16:59;6.00;99.90
71155;DHT22;59375;53.216;5.728;2023-04-25T05:19:25;6.10;99.90
71155;DHT22;59375;53.216;5.728;2023-04-25T05:21:50;6.20;99.90
71155;DHT22;59375;53.216;5.728;2023-04-25T05:24:16;6.30;99.90
71155;DHT22;59375;53.216;5.728;2023-04-25T05:26:41;6.40;99.90
71155;DHT22;59375;53.216;5.728;2023-04-25T05:29:07;6.40;99.90
71155;DHT22;59375;53.216;5.728;2023-04-25T05:31:32;6.50;99.90
71155;DHT22;59375;53.216;5.728;2023-04-25T05:33:58;6.50;99.90
71155;DHT22;59375;53.216;5.728;2023-04-25T05:36:23;6.50;99.90
71155;DHT22;59375;53.216;5.728;2023-04-25T05:38:49;6.50;99.90
71155;DHT22;59375;53.216;5.728;2023-04-25T05:41:14;6.40;99.90
71155;DHT22;59375;53.216;5.728;2023-04-25T05:43:40;6.30;99.90
71155;DHT22;59375;53.216;5.728;2023-04-25T05:46:10;6.30;99.90
71155;DHT22;59375;53.216;5.728;2023-04-25T05:48:36;6.30;99.90
71155;DHT22;59375;53.216;5.728;2023-04-25T05:51:01;6.20;99.90
71155;DHT22;59375;53.216;5.728;2023-04-25T05:53:27;6.10;99.90
71155;DHT22;59375;53.216;5.728;2023-04-25T05:55:52;6.00;99.90
71155;DHT22;59375;53.216;5.728;2023-04-25T05:58:17;6.00;99.90
71155;DHT22;59375;53.216;5.728;2023-04-25T06:00:43;6.00;99.90
71155;DHT22;59375;53.216;5.728;2023-04-25T06:03:09;6.00;99.90
71155;DHT22;59375;53.216;5.728;2023-04-25T06:05:35;6.10;99.90
71155;DHT22;59375;53.216;5.728;2023-04-25T06:08:00;6.30;99.90
71155;DHT22;59375;53.216;5.728;2023-04-25T06:10:26;6.40;99.90
71155;DHT22;59375;53.216;5.728;2023-04-25T06:12:51;6.60;99.90
71155;DHT22;59375;53.216;5.728;2023-04-25T06:15:17;6.80;99.90
71155;DHT22;59375;53.216;5.728;2023-04-25T06:17:42;6.90;99.90
71155;DHT22;59375;53.216;5.728;2023-04-25T06:20:08;7.00;99.90
71155;DHT22;59375;53.216;5.728;2023-04-25T06:22:34;7.00;99.90
71155;DHT22;59375;53.216;5.728;2023-04-25T06:24:59;7.10;99.90
71155;DHT22;59375;53.216;5.728;2023-04-25T06:27:25;7.10;99.90
71155;DHT22;59375;53.216;5.728;2023-04-25T06:29:50;7.50;99.90
71155;DHT22;59375;53.216;5.728;2023-04-25T06:32:16;8.20;99.90
71155;DHT22;59375;53.216;5.728;2023-04-25T06:34:43;8.40;99.90
71155;DHT22;59375;53.216;5.728;2023-04-25T06:37:08;8.30;99.90
71155;DHT22;59375;53.216;5.728;2023-04-25T06:39:34;7.80;99.90
71155;DHT22;59375;53.216;5.728;2023-04-25T06:42:00;7.50;99.90
71155;DHT22;59375;53.216;5.728;2023-04-25T06:44:25;7.20;99.90
71155;DHT22;59375;53.216;5.728;2023-04-25T06:46:51;6.90;99.90
71155;DHT22;59375;53.216;5.728;2023-04-25T06:49:17;6.80;99.90
71155;DHT22;59375;53.216;5.728;2023-04-25T06:51:42;6.80;99.90
71155;DHT22;59375;53.216;5.728;2023-04-25T06:54:08;6.90;99.90
71155;DHT22;59375;53.216;5.728;2023-04-25T06:56:33;7.00;99.90
71155;DHT22;59375;53.216;5.728;2023-04-25T06:58:59;7.10;99.90
71155;DHT22;59375;53.216;5.728;2023-04-25T07:01:25;7.10;99.90
71155;DHT22;59375;53.216;5.728;2023-04-25T07:03:51;7.20;99.90
71155;DHT22;59375;53.216;5.728;2023-04-25T07:06:16;7.20;99.90
71155;DHT22;59375;53.216;5.728;2023-04-25T07:08:42;7.20;99.90
71155;DHT22;59375;53.216;5.728;2023-04-25T07:11:07;7.20;99.90
71155;DHT22;59375;53.216;5.728;2023-04-25T07:13:33;7.20;99.90
71155;DHT22;59375;53.216;5.728;2023-04-25T07:15:59;7.20;99.90
71155;DHT22;59375;53.216;5.728;2023-04-25T07:18:24;7.20;99.90
71155;DHT22;59375;53.216;5.728;2023-04-25T07:20:50;7.50;99.90
71155;DHT22;59375;53.216;5.728;2023-04-25T07:23:15;8.50;99.90
71155;DHT22;59375;53.216;5.728;2023-04-25T07:25:41;9.40;99.90
71155;DHT22;59375;53.216;5.728;2023-04-25T07:28:06;9.90;99.90
71155;DHT22;59375;53.216;5.728;2023-04-25T07:30:32;10.30;99.90
71155;DHT22;59375;53.216;5.728;2023-04-25T07:32:59;10.00;99.90
71155;DHT22;59375;53.216;5.728;2023-04-25T07:35:24;9.70;99.90
71155;DHT22;59375;53.216;5.728;2023-04-25T07:37:50;9.50;99.90
71155;DHT22;59375;53.216;5.728;2023-04-25T07:40:15;9.50;99.90
71155;DHT22;59375;53.216;5.728;2023-04-25T07:42:41;9.70;99.90
71155;DHT22;59375;53.216;5.728;2023-04-25T07:45:07;10.40;99.90
71155;DHT22;59375;53.216;5.728;2023-04-25T07:47:32;10.70;99.90
71155;DHT22;59375;53.216;5.728;2023-04-25T07:49:58;11.30;99.90
71155;DHT22;59375;53.216;5.728;2023-04-25T07:52:23;11.50;99.90
71155;DHT22;59375;53.216;5.728;2023-04-25T07:54:49;11.20;99.90
71155;DHT22;59375;53.216;5.728;2023-04-25T07:57:14;11.10;99.90
71155;DHT22;59375;53.216;5.728;2023-04-25T07:59:40;11.20;99.90
71155;DHT22;59375;53.216;5.728;2023-04-25T08:02:05;11.20;99.90
71155;DHT22;59375;53.216;5.728;2023-04-25T08:04:31;11.60;99.90
71155;DHT22;59375;53.216;5.728;2023-04-25T08:06:56;12.00;99.90
71155;DHT22;59375;53.216;5.728;2023-04-25T08:09:22;12.10;99.90
71155;DHT22;59375;53.216;5.728;2023-04-25T08:11:49;11.70;99.90
71155;DHT22;59375;53.216;5.728;2023-04-25T08:14:14;11.20;99.90
71155;DHT22;59375;53.216;5.728;2023-04-25T08:16:40;10.80;99.90
71155;DHT22;59375;53.216;5.728;2023-04-25T08:19:05;10.50;99.90
71155;DHT22;59375;53.216;5.728;2023-04-25T08:21:31;10.40;99.90
71155;DHT22;59375;53.216;5.728;2023-04-25T08:23:57;10.10;99.90
71155;DHT22;59375;53.216;5.728;2023-04-25T08:26:26;9.90;99.90
71155;DHT22;59375;53.216;5.728;2023-04-25T08:28:52;9.70;99.90
71155;DHT22;59375;53.216;5.728;2023-04-25T08:31:17;9.50;99.90
71155;DHT22;59375;53.216;5.728;2023-04-25T08:33:43;9.30;99.90
71155;DHT22;59375;53.216;5.728;2023-04-25T08:36:09;9.20;99.90
71155;DHT22;59375;53.216;5.728;2023-04-25T08:38:35;9.80;99.90
71155;DHT22;59375;53.216;5.728;2023-04-25T08:41:01;10.80;99.90
71155;DHT22;59375;53.216;5.728;2023-04-25T08:43:27;11.60;99.90
71155;DHT22;59375;53.216;5.728;2023-04-25T08:45:54;12.20;99.90
71155;DHT22;59375;53.216;5.728;2023-04-25T08:48:23;12.60;99.90
71155;DHT22;59375;53.216;5.728;2023-04-25T08:50:50;13.00;99.90
71155;DHT22;59375;53.216;5.728;2023-04-25T08:53:16;13.50;99.90
71155;DHT22;59375;53.216;5.728;2023-04-25T08:55:45;13.70;99.90
71155;DHT22;59375;53.216;5.728;2023-04-25T08:58:11;13.90;99.90
71155;DHT22;59375;53.216;5.728;2023-04-25T09:00:36;13.70;99.90
71155;DHT22;59375;53.216;5.728;2023-04-25T09:03:02;12.90;99.90
71155;DHT22;59375;53.216;5.728;2023-04-25T09:05:29;12.30;99.90
71155;DHT22;59375;53.216;5.728;2023-04-25T09:07:55;12.10;99.90
71155;DHT22;59375;53.216;5.728;2023-04-25T09:10:21;11.70;99.90
71155;DHT22;59375;53.216;5.728;2023-04-25T09:15:31;10.50;99.90
71155;DHT22;59375;53.216;5.728;2023-04-25T09:17:57;10.20;99.90
71155;DHT22;59375;53.216;5.728;2023-04-25T09:20:24;10.10;99.90
71155;DHT22;59375;53.216;5.728;2023-04-25T09:23:00;10.20;99.90
71155;DHT22;59375;53.216;5.728;2023-04-25T09:25:26;10.30;99.90
71155;DHT22;59375;53.216;5.728;2023-04-25T09:27:52;10.10;99.90
71155;DHT22;59375;53.216;5.728;2023-04-25T09:30:18;9.90;99.90
71155;DHT22;59375;53.216;5.728;2023-04-25T09:32:55;9.90;99.90
71155;DHT22;59375;53.216;5.728;2023-04-25T09:35:24;9.70;99.90
71155;DHT22;59375;53.216;5.728;2023-04-25T09:37:51;9.70;99.90
71155;DHT22;59375;53.216;5.728;2023-04-25T09:40:16;9.70;99.90
71155;DHT22;59375;53.216;5.728;2023-04-25T09:42:43;9.70;99.90
71155;DHT22;59375;53.216;5.728;2023-04-25T09:45:08;9.80;99.90
71155;DHT22;59375;53.216;5.728;2023-04-25T09:47:37;10.00;99.90
71155;DHT22;59375;53.216;5.728;2023-04-25T09:50:04;10.10;99.90
71155;DHT22;59375;53.216;5.728;2023-04-25T09:52:38;10.30;99.90
71155;DHT22;59375;53.216;5.728;2023-04-25T09:55:04;10.40;99.90
71155;DHT22;59375;53.216;5.728;2023-04-25T09:57:31;10.40;99.90
71155;DHT22;59375;53.216;5.728;2023-04-25T09:59:57;10.20;99.90
71155;DHT22;59375;53.216;5.728;2023-04-25T10:02:25;10.10;99.90
71155;DHT22;59375;53.216;5.728;2023-04-25T10:04:51;10.10;99.90
71155;DHT22;59375;53.216;5.728;2023-04-25T10:07:18;10.20;99.90
71155;DHT22;59375;53.216;5.728;2023-04-25T10:09:44;10.80;99.90
71155;DHT22;59375;53.216;5.728;2023-04-25T10:12:11;11.50;99.90
71155;DHT22;59375;53.216;5.728;2023-04-25T10:14:37;11.60;99.90
71155;DHT22;59375;53.216;5.728;2023-04-25T10:17:03;11.90;99.90
71155;DHT22;59375;53.216;5.728;2023-04-25T10:19:29;12.30;99.90
71155;DHT22;59375;53.216;5.728;2023-04-25T10:22:02;12.80;99.90
71155;DHT22;59375;53.216;5.728;2023-04-25T10:24:28;13.20;99.90
71155;DHT22;59375;53.216;5.728;2023-04-25T10:26:54;13.50;99.90
71155;DHT22;59375;53.216;5.728;2023-04-25T10:29:24;13.40;99.90
71155;DHT22;59375;53.216;5.728;2023-04-25T10:31:50;12.40;99.90
71155;DHT22;59375;53.216;5.728;2023-04-25T10:34:16;11.60;99.90
71155;DHT22;59375;53.216;5.728;2023-04-25T10:36:42;10.70;99.90
71155;DHT22;59375;53.216;5.728;2023-04-25T10:39:08;9.90;99.90
71155;DHT22;59375;53.216;5.728;2023-04-25T10:41:45;9.30;99.90
71155;DHT22;59375;53.216;5.728;2023-04-25T10:44:10;9.00;99.90
71155;DHT22;59375;53.216;5.728;2023-04-25T10:46:36;9.30;99.90
71155;DHT22;59375;53.216;5.728;2023-04-25T10:49:02;9.70;99.90
71155;DHT22;59375;53.216;5.728;2023-04-25T10:51:29;9.80;99.90
71155;DHT22;59375;53.216;5.728;2023-04-25T10:54:05;10.30;99.90
71155;DHT22;59375;53.216;5.728;2023-04-25T10:56:32;10.80;99.90
71155;DHT22;59375;53.216;5.728;2023-04-25T11:04:03;12.00;99.90
71155;DHT22;59375;53.216;5.728;2023-04-25T11:09:27;12.60;99.90
71155;DHT22;59375;53.216;5.728;2023-04-25T11:11:54;13.10;99.90
71155;DHT22;59375;53.216;5.728;2023-04-25T11:14:21;13.60;99.90
71155;DHT22;59375;53.216;5.728;2023-04-25T11:16:47;13.60;99.90
71155;DHT22;59375;53.216;5.728;2023-04-25T11:19:19;13.40;99.90
71155;DHT22;59375;53.216;5.728;2023-04-25T11:21:44;13.00;99.90
71155;DHT22;59375;53.216;5.728;2023-04-25T11:24:11;12.60;99.90
71155;DHT22;59375;53.216;5.728;2023-04-25T11:26:36;12.00;99.90
71155;DHT22;59375;53.216;5.728;2023-04-25T11:29:02;11.50;99.90
71155;DHT22;59375;53.216;5.728;2023-04-25T11:31:28;11.40;99.90
71155;DHT22;59375;53.216;5.728;2023-04-25T11:33:54;11.90;99.90
71155;DHT22;59375;53.216;5.728;2023-04-25T11:36:22;12.30;99.90
71155;DHT22;59375;53.216;5.728;2023-04-25T11:38:47;12.10;99.90
71155;DHT22;59375;53.216;5.728;2023-04-25T11:41:13;12.30;99.90
71155;DHT22;59375;53.216;5.728;2023-04-25T11:43:38;12.40;99.90
71155;DHT22;59375;53.216;5.728;2023-04-25T11:46:07;12.50;99.90
71155;DHT22;59375;53.216;5.728;2023-04-25T11:48:38;12.60;99.90
71155;DHT22;59375;53.216;5.728;2023-04-25T11:51:04;12.90;99.90
71155;DHT22;59375;53.216;5.728;2023-04-25T11:53:30;12.90;99.90
71155;DHT22;59375;53.216;5.728;2023-04-25T11:55:55;12.80;99.90
71155;DHT22;59375;53.216;5.728;2023-04-25T11:58:21;12.30;99.90
71155;DHT22;59375;53.216;5.728;2023-04-25T12:00:46;12.10;99.90
71155;DHT22;59375;53.216;5.728;2023-04-25T12:03:12;11.50;99.90
71155;DHT22;59375;53.216;5.728;2023-04-25T12:05:37;11.50;99.90
71155;DHT22;59375;53.216;5.728;2023-04-25T12:08:12;11.60;99.90
71155;DHT22;59375;53.216;5.728;2023-04-25T12:10:41;12.10;99.90
71155;DHT22;59375;53.216;5.728;2023-04-25T12:13:25;12.50;99.90
71155;DHT22;59375;53.216;5.728;2023-04-25T12:15:51;12.70;99.90
71155;DHT22;59375;53.216;5.728;2023-04-25T12:18:19;13.00;99.90
71155;DHT22;59375;53.216;5.728;2023-04-25T12:20:46;13.30;99.90
71155;DHT22;59375;53.216;5.728;2023-04-25T12:23:11;13.50;99.90
71155;DHT22;59375;53.216;5.728;2023-04-25T12:25:38;13.90;99.90
71155;DHT22;59375;53.216;5.728;2023-04-25T12:28:11;13.70;99.90
71155;DHT22;59375;53.216;5.728;2023-04-25T12:33:22;13.40;99.90
71155;DHT22;59375;53.216;5.728;2023-04-25T12:35:47;13.60;99.90
71155;DHT22;59375;53.216;5.728;2023-04-25T12:38:26;13.50;99.90
71155;DHT22;59375;53.216;5.728;2023-04-25T12:40:53;13.10;99.90
71155;DHT22;59375;53.216;5.728;2023-04-25T12:43:18;12.80;99.90
71155;DHT22;59375;53.216;5.728;2023-04-25T12:45:44;12.70;99.90
71155;DHT22;59375;53.216;5.728;2023-04-25T12:48:10;13.00;99.90
71155;DHT22;59375;53.216;5.728;2023-04-25T12:50:36;12.90;99.90
71155;DHT22;59375;53.216;5.728;2023-04-25T12:53:01;12.90;99.90
71155;DHT22;59375;53.216;5.728;2023-04-25T12:55:27;12.80;99.90
71155;DHT22;59375;53.216;5.728;2023-04-25T12:57:52;12.40;99.90
71155;DHT22;59375;53.216;5.728;2023-04-25T13:00:18;11.80;99.90
71155;DHT22;59375;53.216;5.728;2023-04-25T13:02:45;11.30;99.90
71155;DHT22;59375;53.216;5.728;2023-04-25T13:05:12;11.40;99.90
71155;DHT22;59375;53.216;5.728;2023-04-25T13:07:37;11.60;99.90
71155;DHT22;59375;53.216;5.728;2023-04-25T13:10:03;11.70;99.90
71155;DHT22;59375;53.216;5.728;2023-04-25T13:12:29;11.90;99.90
71155;DHT22;59375;53.216;5.728;2023-04-25T13:14:54;12.30;99.90
71155;DHT22;59375;53.216;5.728;2023-04-25T13:17:20;11.90;99.90
71155;DHT22;59375;53.216;5.728;2023-04-25T13:19:45;12.00;99.90
71155;DHT22;59375;53.216;5.728;2023-04-25T13:22:10;12.10;99.90
71155;DHT22;59375;53.216;5.728;2023-04-25T13:24:36;12.10;99.90
71155;DHT22;59375;53.216;5.728;2023-04-25T13:27:01;12.10;99.90
71155;DHT22;59375;53.216;5.728;2023-04-25T13:29:27;12.00;99.90
71155;DHT22;59375;53.216;5.728;2023-04-25T13:31:52;12.20;99.90
71155;DHT22;59375;53.216;5.728;2023-04-25T13:34:18;12.20;99.90
71155;DHT22;59375;53.216;5.728;2023-04-25T13:36:43;12.00;99.90
71155;DHT22;59375;53.216;5.728;2023-04-25T13:39:09;12.00;99.90
71155;DHT22;59375;53.216;5.728;2023-04-25T13:41:34;11.80;99.90
71155;DHT22;59375;53.216;5.728;2023-04-25T13:44:00;11.90;99.90
71155;DHT22;59375;53.216;5.728;2023-04-25T13:46:26;11.90;99.90
71155;DHT22;59375;53.216;5.728;2023-04-25T13:48:52;11.50;99.90
71155;DHT22;59375;53.216;5.728;2023-04-25T13:51:17;10.90;99.90
71155;DHT22;59375;53.216;5.728;2023-04-25T13:53:43;10.80;99.90
71155;DHT22;59375;53.216;5.728;2023-04-25T13:56:10;10.60;99.90
71155;DHT22;59375;53.216;5.728;2023-04-25T13:58:36;10.50;99.90
71155;DHT22;59375;53.216;5.728;2023-04-25T14:01:02;10.60;99.90
71155;DHT22;59375;53.216;5.728;2023-04-25T14:03:28;10.70;99.90
71155;DHT22;59375;53.216;5.728;2023-04-25T14:05:54;10.90;99.90
71155;DHT22;59375;53.216;5.728;2023-04-25T14:08:20;10.80;99.90
71155;DHT22;59375;53.216;5.728;2023-04-25T14:10:47;10.80;99.90
71155;DHT22;59375;53.216;5.728;2023-04-25T14:13:12;10.80;99.90
71155;DHT22;59375;53.216;5.728;2023-04-25T14:15:38;11.00;99.90
71155;DHT22;59375;53.216;5.728;2023-04-25T14:18:03;11.10;99.90
71155;DHT22;59375;53.216;5.728;2023-04-25T14:20:29;11.00;99.90
71155;DHT22;59375;53.216;5.728;2023-04-25T14:22:54;10.70;99.90
71155;DHT22;59375;53.216;5.728;2023-04-25T14:25:22;10.40;99.90
71155;DHT22;59375;53.216;5.728;2023-04-25T14:27:48;10.10;99.90
71155;DHT22;59375;53.216;5.728;2023-04-25T14:30:18;9.80;99.90
71155;DHT22;59375;53.216;5.728;2023-04-25T14:32:43;9.60;99.90
71155;DHT22;59375;53.216;5.728;2023-04-25T14:35:10;9.60;99.90
71155;DHT22;59375;53.216;5.728;2023-04-25T14:37:36;9.60;99.90
71155;DHT22;59375;53.216;5.728;2023-04-25T14:40:01;9.60;99.90
71155;DHT22;59375;53.216;5.728;2023-04-25T14:42:27;9.80;99.90
71155;DHT22;59375;53.216;5.728;2023-04-25T14:44:53;10.00;99.90
71155;DHT22;59375;53.216;5.728;2023-04-25T14:47:18;10.10;99.90
71155;DHT22;59375;53.216;5.728;2023-04-25T14:49:43;10.20;99.90
71155;DHT22;59375;53.216;5.728;2023-04-25T14:52:11;10.10;99.90
71155;DHT22;59375;53.216;5.728;2023-04-25T14:54:38;9.80;99.90
71155;DHT22;59375;53.216;5.728;2023-04-25T14:57:03;9.80;99.90
71155;DHT22;59375;53.216;5.728;2023-04-25T14:59:29;9.90;99.90
71155;DHT22;59375;53.216;5.728;2023-04-25T15:01:54;10.10;99.90
71155;DHT22;59375;53.216;5.728;2023-04-25T15:04:20;10.00;99.90
71155;DHT22;59375;53.216;5.728;2023-04-25T15:06:46;9.80;99.90
71155;DHT22;59375;53.216;5.728;2023-04-25T15:09:11;9.70;99.90
71155;DHT22;59375;53.216;5.728;2023-04-25T15:11:37;9.40;99.90
71155;DHT22;59375;53.216;5.728;2023-04-25T15:14:02;9.40;99.90
71155;DHT22;59375;53.216;5.728;2023-04-25T15:16:28;9.30;99.90
71155;DHT22;59375;53.216;5.728;2023-04-25T15:18:53;9.20;99.90
71155;DHT22;59375;53.216;5.728;2023-04-25T15:21:19;9.00;99.90
71155;DHT22;59375;53.216;5.728;2023-04-25T15:23:44;9.00;99.90
71155;DHT22;59375;53.216;5.728;2023-04-25T15:26:10;9.20;99.90
71155;DHT22;59375;53.216;5.728;2023-04-25T15:28:36;9.30;99.90
71155;DHT22;59375;53.216;5.728;2023-04-25T15:31:01;9.30;99.90
71155;DHT22;59375;53.216;5.728;2023-04-25T15:33:27;9.30;99.90
71155;DHT22;59375;53.216;5.728;2023-04-25T15:35:52;9.40;99.90
71155;DHT22;59375;53.216;5.728;2023-04-25T15:38:17;9.50;99.90
71155;DHT22;59375;53.216;5.728;2023-04-25T15:40:43;9.40;99.90
71155;DHT22;59375;53.216;5.728;2023-04-25T15:43:09;9.30;99.90
71155;DHT22;59375;53.216;5.728;2023-04-25T15:45:40;9.20;99.90